createdAt,value
2019-03-27T00:01:35.216Z,5.20
2019-03-27T00:04:23.628Z,5.20
2019-03-27T00:06:53.094Z,5.20
2019-03-27T00:09:22.456Z,5.20
2019-03-27T00:11:51.924Z,5.20
2019-03-27T00:14:21.321Z,5.20
2019-03-27T00:16:50.720Z,5.10
2019-03-27T00:19:20.172Z,5.00
2019-03-27T00:21:49.636Z,5.00
2019-03-27T00:24:19.089Z,5.00
2019-03-27T00:26:48.492Z,5.00
2019-03-27T00:29:17.972Z,5.10
2019-03-27T00:31:47.392Z,5.10
2019-03-27T00:34:19.840Z,5.20
2019-03-27T00:36:49.217Z,5.10
2019-03-27T00:39:18.613Z,5.10
2019-03-27T00:41:48.064Z,5.10
2019-03-27T00:44:17.455Z,5.10
2019-03-27T00:46:46.923Z,5.00
2019-03-27T00:49:16.304Z,4.90
2019-03-27T00:51:45.713Z,4.80
2019-03-27T00:54:15.147Z,4.80
2019-03-27T00:56:44.704Z,4.70
2019-03-27T00:59:14.184Z,4.70
2019-03-27T01:01:43.656Z,4.70
2019-03-27T01:04:13.200Z,4.70
2019-03-27T01:06:42.617Z,4.70
2019-03-27T01:09:12.003Z,4.60
2019-03-27T01:11:41.408Z,4.50
2019-03-27T01:14:10.963Z,4.50
2019-03-27T01:16:40.347Z,4.40
2019-03-27T01:19:09.732Z,4.30
2019-03-27T01:21:39.130Z,4.20
2019-03-27T01:24:08.518Z,4.20
2019-03-27T01:26:38.055Z,4.10
2019-03-27T01:29:07.639Z,4.20
2019-03-27T01:31:37.097Z,4.20
2019-03-27T01:34:06.569Z,4.20
2019-03-27T01:36:36.012Z,4.20
2019-03-27T01:39:07.133Z,4.20
2019-03-27T01:41:36.513Z,4.20
2019-03-27T01:44:06.070Z,4.20
2019-03-27T01:46:35.533Z,4.20
2019-03-27T01:49:05.029Z,4.20
2019-03-27T01:51:34.421Z,4.20
2019-03-27T01:54:03.907Z,4.20
2019-03-27T01:56:33.300Z,4.20
2019-03-27T01:59:02.708Z,4.20
2019-03-27T02:01:32.223Z,4.20
2019-03-27T02:04:01.740Z,4.30
2019-03-27T02:06:31.293Z,4.20
2019-03-27T02:09:00.698Z,4.10
2019-03-27T02:11:30.174Z,4.10
2019-03-27T02:13:59.644Z,4.10
2019-03-27T02:16:29.021Z,4.10
2019-03-27T02:18:58.795Z,4.10
2019-03-27T02:21:28.280Z,4.20
2019-03-27T02:23:57.668Z,4.20
2019-03-27T02:26:27.142Z,4.20
2019-03-27T02:28:56.517Z,4.30
2019-03-27T02:31:25.917Z,4.30
2019-03-27T02:33:55.430Z,4.30
2019-03-27T02:36:24.822Z,4.30
2019-03-27T02:38:54.192Z,4.30
2019-03-27T02:41:23.622Z,4.30
2019-03-27T02:43:53.080Z,4.30
2019-03-27T02:46:25.192Z,4.30
2019-03-27T02:48:53.680Z,4.30
2019-03-27T02:51:23.209Z,4.20
2019-03-27T02:53:52.748Z,4.20
2019-03-27T02:56:22.147Z,4.20
2019-03-27T02:58:51.680Z,4.20
2019-03-27T03:01:21.140Z,4.20
2019-03-27T03:03:50.601Z,4.20
2019-03-27T03:06:20.102Z,4.00
2019-03-27T03:08:49.569Z,3.90
2019-03-27T03:11:19.029Z,3.80
2019-03-27T03:13:48.493Z,3.80
2019-03-27T03:16:17.955Z,3.80
2019-03-27T03:18:47.365Z,3.90
2019-03-27T03:21:16.756Z,3.90
2019-03-27T03:23:46.136Z,3.90
2019-03-27T03:26:15.690Z,4.00
2019-03-27T03:28:45.065Z,4.10
2019-03-27T03:31:14.542Z,4.00
2019-03-27T03:33:43.996Z,4.00
2019-03-27T03:36:13.453Z,4.10
2019-03-27T03:38:42.918Z,4.10
2019-03-27T03:41:12.433Z,4.10
2019-03-27T03:43:41.895Z,4.10
2019-03-27T03:46:11.437Z,4.10
2019-03-27T03:48:40.814Z,4.00
2019-03-27T03:51:10.642Z,4.00
2019-03-27T03:53:40.213Z,4.00
2019-03-27T03:56:10.893Z,4.00
2019-03-27T03:58:43.028Z,4.00
2019-03-27T04:01:12.824Z,4.00
2019-03-27T04:03:44.803Z,4.00
2019-03-27T04:06:14.268Z,4.00
2019-03-27T04:08:43.746Z,4.00
2019-03-27T04:11:13.214Z,4.00
2019-03-27T04:13:43.791Z,4.00
2019-03-27T04:16:13.198Z,4.00
2019-03-27T04:18:42.626Z,4.00
2019-03-27T04:21:12.025Z,4.00
2019-03-27T04:23:41.513Z,4.00
2019-03-27T04:26:11.192Z,4.00
2019-03-27T04:28:40.653Z,4.10
2019-03-27T04:31:10.127Z,4.10
2019-03-27T04:33:39.572Z,4.10
2019-03-27T04:36:09.037Z,4.10
2019-03-27T04:38:38.540Z,4.10
2019-03-27T04:41:08.080Z,4.20
2019-03-27T04:43:37.529Z,4.20
2019-03-27T04:46:07.063Z,4.20
2019-03-27T04:48:36.465Z,4.20
2019-03-27T04:51:06.006Z,4.20
2019-03-27T04:53:35.439Z,4.10
2019-03-27T04:56:04.988Z,4.10
2019-03-27T04:58:34.476Z,4.00
2019-03-27T05:01:03.933Z,4.00
2019-03-27T05:03:33.408Z,4.00
2019-03-27T05:06:02.871Z,4.00
2019-03-27T05:08:32.348Z,4.00
2019-03-27T05:11:01.736Z,4.00
2019-03-27T05:13:31.165Z,3.90
2019-03-27T05:16:00.715Z,3.90
2019-03-27T05:18:30.168Z,3.90
2019-03-27T05:20:59.928Z,3.90
2019-03-27T05:23:29.312Z,3.90
2019-03-27T05:25:58.725Z,3.80
2019-03-27T05:28:28.101Z,3.80
2019-03-27T05:30:57.500Z,3.80
2019-03-27T05:33:26.868Z,3.70
2019-03-27T05:35:56.263Z,3.50
2019-03-27T05:38:25.661Z,3.50
2019-03-27T05:40:55.053Z,3.40
2019-03-27T05:43:24.996Z,3.40
2019-03-27T05:45:54.423Z,3.50
2019-03-27T05:48:23.922Z,3.50
2019-03-27T05:50:53.402Z,3.60
2019-03-27T05:53:22.824Z,3.70
2019-03-27T05:55:52.211Z,3.70
2019-03-27T05:58:21.662Z,3.70
2019-03-27T06:00:51.068Z,3.70
2019-03-27T06:03:20.441Z,3.70
2019-03-27T06:05:49.836Z,3.80
2019-03-27T06:08:19.284Z,3.80
2019-03-27T06:10:48.718Z,3.80
2019-03-27T06:13:18.256Z,3.90
2019-03-27T06:15:47.781Z,4.00
2019-03-27T06:18:17.205Z,4.00
2019-03-27T06:20:46.701Z,4.00
2019-03-27T06:23:16.108Z,4.00
2019-03-27T06:25:45.597Z,4.00
2019-03-27T06:28:15.020Z,4.10
2019-03-27T06:30:45.199Z,4.10
2019-03-27T06:33:14.615Z,4.20
2019-03-27T06:35:44.045Z,4.20
2019-03-27T06:38:13.691Z,4.30
2019-03-27T06:40:43.284Z,4.40
2019-03-27T06:43:17.361Z,4.40
2019-03-27T06:45:47.916Z,4.50
2019-03-27T06:48:26.087Z,4.50
2019-03-27T06:50:48.403Z,4.60
2019-03-27T06:53:17.819Z,4.50
2019-03-27T06:55:47.196Z,4.60
2019-03-27T06:58:16.764Z,4.60
2019-03-27T07:00:46.183Z,4.60
2019-03-27T07:03:15.625Z,4.60
2019-03-27T07:05:45.272Z,4.60
2019-03-27T07:08:14.781Z,4.50
2019-03-27T07:10:44.168Z,4.40
2019-03-27T07:13:13.699Z,4.40
2019-03-27T07:15:43.177Z,4.50
2019-03-27T07:18:12.568Z,4.50
2019-03-27T07:20:41.968Z,4.60
2019-03-27T07:23:11.483Z,4.70
2019-03-27T07:25:40.975Z,4.70
2019-03-27T07:28:10.441Z,4.80
2019-03-27T07:30:39.848Z,4.90
2019-03-27T07:33:09.320Z,5.00
2019-03-27T07:35:38.793Z,5.10
2019-03-27T07:38:08.289Z,5.20
2019-03-27T07:40:37.782Z,5.30
2019-03-27T07:43:07.237Z,5.30
2019-03-27T07:45:36.631Z,5.30
2019-03-27T07:48:06.105Z,5.30
2019-03-27T07:50:35.673Z,5.30
2019-03-27T07:53:05.358Z,5.30
2019-03-27T07:55:35.027Z,5.40
2019-03-27T07:58:04.566Z,5.40
2019-03-27T08:00:34.026Z,5.50
2019-03-27T08:03:04.094Z,5.70
2019-03-27T08:05:33.579Z,5.90
2019-03-27T08:08:03.100Z,6.20
2019-03-27T08:10:32.483Z,6.20
2019-03-27T08:13:01.928Z,6.30
2019-03-27T08:15:31.488Z,6.30
2019-03-27T08:18:00.831Z,6.40
2019-03-27T08:20:30.293Z,6.50
2019-03-27T08:22:59.800Z,6.60
2019-03-27T08:25:29.165Z,6.80
2019-03-27T08:27:58.584Z,6.90
2019-03-27T08:30:28.060Z,6.90
2019-03-27T08:32:57.524Z,6.80
2019-03-27T08:35:26.986Z,6.80
2019-03-27T08:37:56.635Z,6.90
2019-03-27T08:40:26.012Z,6.70
2019-03-27T08:42:55.526Z,6.70
2019-03-27T08:45:25.017Z,6.90
2019-03-27T08:47:54.469Z,7.10
2019-03-27T08:50:23.961Z,7.30
2019-03-27T08:52:54.687Z,7.30
2019-03-27T08:55:24.082Z,7.40
2019-03-27T08:57:53.536Z,7.50
2019-03-27T09:00:48.008Z,7.30
2019-03-27T09:03:18.168Z,7.20
2019-03-27T09:05:48.207Z,7.20
2019-03-27T09:08:17.708Z,7.10
2019-03-27T09:10:47.269Z,6.90
2019-03-27T09:13:16.895Z,6.60
2019-03-27T09:15:46.376Z,6.40
2019-03-27T09:18:16.999Z,6.40
2019-03-27T09:20:46.727Z,6.30
2019-03-27T09:23:16.184Z,6.00
2019-03-27T09:25:45.593Z,6.10
2019-03-27T09:28:15.053Z,6.20
2019-03-27T09:30:44.436Z,6.30
2019-03-27T09:33:13.903Z,6.40
2019-03-27T09:35:43.405Z,6.40
2019-03-27T09:38:13.939Z,6.60
2019-03-27T09:40:43.497Z,6.80
2019-03-27T09:44:45.603Z,6.80
2019-03-27T09:47:15.142Z,6.90
2019-03-27T09:49:49.804Z,7.00
2019-03-27T09:52:18.933Z,7.30
2019-03-27T09:54:48.463Z,7.50
2019-03-27T09:57:17.889Z,7.70
2019-03-27T09:59:47.490Z,8.00
2019-03-27T10:02:16.927Z,8.50
2019-03-27T10:04:46.448Z,9.10
2019-03-27T10:07:15.982Z,9.80
2019-03-27T10:09:45.513Z,10.20
2019-03-27T10:12:15.312Z,10.40
2019-03-27T10:14:47.430Z,10.60
2019-03-27T10:17:16.348Z,10.80
2019-03-27T10:19:45.901Z,10.90
2019-03-27T10:22:15.551Z,11.20
2019-03-27T10:24:45.052Z,11.50
2019-03-27T10:27:19.537Z,11.70
2019-03-27T10:29:52.750Z,11.70
2019-03-27T10:32:22.593Z,11.50
2019-03-27T10:34:52.462Z,11.20
2019-03-27T10:37:21.994Z,11.00
2019-03-27T10:39:55.859Z,11.00
2019-03-27T10:42:29.015Z,11.30
2019-03-27T10:44:59.285Z,11.30
2019-03-27T10:47:28.823Z,11.30
2019-03-27T10:49:58.274Z,11.30
2019-03-27T10:52:27.818Z,11.20
2019-03-27T10:54:59.517Z,11.40
2019-03-27T10:57:28.996Z,11.80
2019-03-27T10:59:58.617Z,12.10
2019-03-27T11:02:28.772Z,12.30
2019-03-27T11:04:58.508Z,12.60
2019-03-27T11:07:27.984Z,12.60
2019-03-27T11:09:57.587Z,12.20
2019-03-27T11:12:27.578Z,12.20
2019-03-27T11:14:57.263Z,11.90
2019-03-27T11:17:26.831Z,11.40
2019-03-27T11:19:56.330Z,10.80
2019-03-27T11:22:26.132Z,10.40
2019-03-27T11:24:55.970Z,9.70
2019-03-27T11:27:25.668Z,9.20
2019-03-27T11:29:55.129Z,8.80
2019-03-27T11:32:24.937Z,8.30
2019-03-27T11:34:54.548Z,7.80
2019-03-27T11:37:24.252Z,7.50
2019-03-27T11:39:53.969Z,7.60
2019-03-27T11:42:24.940Z,7.60
2019-03-27T11:44:56.083Z,7.50
2019-03-27T11:47:26.171Z,7.40
2019-03-27T11:49:55.596Z,7.50
2019-03-27T11:52:25.140Z,7.50
2019-03-27T11:54:54.668Z,7.50
2019-03-27T11:57:24.185Z,7.50
2019-03-27T11:59:54.450Z,7.60
2019-03-27T12:02:24.679Z,7.60
2019-03-27T12:04:54.101Z,7.90
2019-03-27T12:07:23.799Z,8.30
2019-03-27T12:09:53.747Z,8.50
2019-03-27T12:12:31.779Z,8.80
2019-03-27T12:15:01.281Z,9.20
2019-03-27T12:17:32.841Z,9.70
2019-03-27T12:20:03.925Z,10.00
2019-03-27T12:22:33.405Z,10.40
2019-03-27T12:25:04.383Z,10.80
2019-03-27T12:27:33.901Z,11.30
2019-03-27T12:30:03.469Z,11.40
2019-03-27T12:32:32.960Z,11.20
2019-03-27T12:35:02.563Z,11.20
2019-03-27T12:37:32.037Z,11.10
2019-03-27T12:40:01.502Z,11.00
2019-03-27T12:42:31.132Z,11.30
2019-03-27T12:45:01.994Z,11.60
2019-03-27T12:47:31.830Z,11.60
2019-03-27T12:50:01.402Z,11.60
2019-03-27T12:52:30.953Z,11.50
2019-03-27T12:55:00.489Z,11.60
2019-03-27T12:57:31.268Z,11.70
2019-03-27T13:00:00.861Z,11.70
2019-03-27T13:02:30.473Z,11.60
2019-03-27T13:04:59.905Z,11.50
2019-03-27T13:07:29.329Z,11.20
2019-03-27T13:09:58.908Z,11.20
2019-03-27T13:12:30.483Z,11.00
2019-03-27T13:14:59.928Z,10.80
2019-03-27T13:17:30.658Z,10.60
2019-03-27T13:20:00.371Z,10.40
2019-03-27T13:22:30.006Z,10.60
2019-03-27T13:24:59.829Z,10.60
2019-03-27T13:27:29.348Z,10.70
2019-03-27T13:30:02.019Z,10.70
2019-03-27T13:32:31.617Z,11.00
2019-03-27T13:35:01.207Z,10.80
2019-03-27T13:37:46.004Z,10.80
2019-03-27T13:40:16.287Z,10.70
2019-03-27T13:42:45.748Z,10.60
2019-03-27T13:45:16.516Z,10.40
2019-03-27T13:47:47.480Z,10.50
2019-03-27T13:50:17.965Z,10.80
2019-03-27T13:52:48.253Z,11.20
2019-03-27T13:55:20.190Z,11.50
2019-03-27T13:57:49.593Z,11.50
2019-03-27T14:00:19.560Z,11.40
2019-03-27T14:02:49.148Z,11.60
2019-03-27T14:05:18.743Z,11.60
2019-03-27T14:07:48.253Z,11.30
2019-03-27T14:10:18.042Z,11.00
2019-03-27T14:12:47.546Z,10.90
2019-03-27T14:15:19.776Z,10.60
2019-03-27T14:17:49.289Z,10.30
2019-03-27T14:20:19.126Z,10.00
2019-03-27T14:22:48.776Z,10.00
2019-03-27T14:25:21.797Z,10.10
2019-03-27T14:27:49.905Z,10.00
2019-03-27T14:30:48.972Z,10.00
2019-03-27T14:33:18.519Z,10.10
2019-03-27T14:35:48.002Z,10.20
2019-03-27T14:38:17.499Z,10.20
2019-03-27T14:40:47.056Z,10.20
2019-03-27T14:43:16.533Z,10.20
2019-03-27T14:45:46.063Z,10.00
2019-03-27T14:48:15.468Z,9.90
2019-03-27T14:50:45.052Z,10.00
2019-03-27T14:53:14.542Z,10.00
2019-03-27T14:55:44.252Z,10.00
2019-03-27T14:58:13.711Z,10.00
2019-03-27T15:00:43.092Z,9.90
2019-03-27T15:03:12.701Z,9.80
2019-03-27T15:05:42.266Z,9.70
2019-03-27T15:08:11.749Z,9.60
2019-03-27T15:10:41.726Z,9.40
2019-03-27T15:13:11.247Z,9.30
2019-03-27T15:15:40.852Z,9.30
2019-03-27T15:18:10.405Z,9.30
2019-03-27T15:20:39.897Z,9.30
2019-03-27T15:23:09.554Z,9.20
2019-03-27T15:25:38.996Z,9.10
2019-03-27T15:28:08.735Z,8.90
2019-03-27T15:30:38.492Z,8.80
2019-03-27T15:33:08.003Z,8.60
2019-03-27T15:35:40.018Z,8.50
2019-03-27T15:38:09.402Z,8.50
2019-03-27T15:40:40.930Z,8.50
2019-03-27T15:43:10.473Z,8.50
2019-03-27T15:45:42.951Z,8.50
2019-03-27T15:48:12.618Z,8.40
2019-03-27T15:50:54.222Z,8.40
2019-03-27T15:53:13.465Z,8.60
2019-03-27T15:55:42.891Z,8.50
2019-03-27T15:58:12.403Z,8.50
2019-03-27T16:00:41.865Z,8.50
2019-03-27T16:03:11.341Z,8.50
2019-03-27T16:05:41.393Z,8.50
2019-03-27T16:08:10.977Z,8.50
2019-03-27T16:10:40.533Z,8.60
2019-03-27T16:13:11.182Z,8.50
2019-03-27T16:15:40.642Z,8.30
2019-03-27T16:18:10.146Z,8.20
2019-03-27T16:20:40.748Z,8.10
2019-03-27T16:23:10.361Z,8.10
2019-03-27T16:25:39.913Z,8.20
2019-03-27T16:28:10.933Z,8.30
2019-03-27T16:30:41.087Z,8.40
2019-03-27T16:33:10.675Z,8.30
2019-03-27T16:35:40.196Z,8.40
2019-03-27T16:38:09.669Z,8.50
2019-03-27T16:40:49.004Z,8.60
2019-03-27T16:43:21.857Z,8.50
2019-03-27T16:45:51.514Z,8.60
2019-03-27T16:48:20.975Z,8.40
2019-03-27T16:50:50.601Z,8.30
2019-03-27T16:53:21.268Z,8.30
2019-03-27T16:55:50.877Z,8.20
2019-03-27T16:58:20.376Z,8.20
2019-03-27T17:00:50.196Z,8.20
2019-03-27T17:03:19.859Z,8.10
2019-03-27T17:05:54.237Z,8.10
2019-03-27T17:08:20.932Z,8.00
2019-03-27T17:10:50.475Z,8.00
2019-03-27T17:13:21.284Z,7.90
2019-03-27T17:15:50.809Z,8.00
2019-03-27T17:18:20.228Z,7.90
2019-03-27T17:20:50.021Z,7.70
2019-03-27T17:23:19.481Z,7.70
2019-03-27T17:25:49.109Z,7.70
2019-03-27T17:28:18.568Z,7.60
2019-03-27T17:30:50.243Z,7.60
2019-03-27T17:33:20.567Z,7.60
2019-03-27T17:35:50.068Z,7.50
2019-03-27T17:38:19.546Z,7.50
2019-03-27T17:40:49.156Z,7.40
2019-03-27T17:43:18.732Z,7.40
2019-03-27T17:45:48.214Z,7.40
2019-03-27T17:48:17.792Z,7.40
2019-03-27T17:50:47.269Z,7.40
2019-03-27T17:53:16.746Z,7.50
2019-03-27T17:55:46.512Z,7.50
2019-03-27T17:58:16.130Z,7.50
2019-03-27T18:00:52.312Z,7.50
2019-03-27T18:03:21.813Z,7.50
2019-03-27T18:05:51.404Z,7.50
2019-03-27T18:08:22.840Z,7.50
2019-03-27T18:10:52.837Z,7.50
2019-03-27T18:13:25.535Z,7.50
2019-03-27T18:15:55.109Z,7.60
2019-03-27T18:18:24.587Z,7.50
2019-03-27T18:20:55.317Z,7.50
2019-03-27T18:23:24.706Z,7.40
2019-03-27T18:25:54.185Z,7.40
2019-03-27T18:28:23.581Z,7.40
2019-03-27T18:30:53.064Z,7.40
2019-03-27T18:33:22.945Z,7.40
2019-03-27T18:35:52.601Z,7.40
2019-03-27T18:38:22.145Z,7.50
2019-03-27T18:40:51.726Z,7.50
2019-03-27T18:43:21.172Z,7.40
2019-03-27T18:45:50.562Z,7.40
2019-03-27T18:48:19.965Z,7.40
2019-03-27T18:50:49.407Z,7.30
2019-03-27T18:53:18.866Z,7.30
2019-03-27T18:55:48.273Z,7.30
2019-03-27T18:58:17.657Z,7.30
2019-03-27T19:00:47.123Z,7.20
2019-03-27T19:03:16.486Z,7.20
2019-03-27T19:05:45.880Z,7.20
2019-03-27T19:08:15.316Z,7.10
2019-03-27T19:10:45.300Z,7.10
2019-03-27T19:13:14.688Z,7.00
2019-03-27T19:15:44.253Z,7.00
2019-03-27T19:18:13.656Z,6.90
2019-03-27T19:20:43.123Z,6.80
2019-03-27T19:23:12.779Z,6.80
2019-03-27T19:25:42.242Z,6.80
2019-03-27T19:28:11.620Z,6.80
2019-03-27T19:30:41.162Z,6.80
2019-03-27T19:33:10.547Z,6.80
2019-03-27T19:35:39.934Z,6.70
2019-03-27T19:38:09.488Z,6.70
2019-03-27T19:40:38.934Z,6.70
2019-03-27T19:43:08.395Z,6.70
2019-03-27T19:45:37.917Z,6.60
2019-03-27T19:48:07.309Z,6.60
2019-03-27T19:50:36.787Z,6.60
2019-03-27T19:53:06.378Z,6.60
2019-03-27T19:55:35.878Z,6.70
2019-03-27T19:58:05.425Z,6.70
2019-03-27T20:00:34.898Z,6.60
2019-03-27T20:03:04.463Z,6.60
2019-03-27T20:05:33.925Z,6.70
2019-03-27T20:08:03.393Z,6.60
2019-03-27T20:10:32.864Z,6.50
2019-03-27T20:13:02.357Z,6.50
2019-03-27T20:15:31.853Z,6.50
2019-03-27T20:18:01.363Z,6.50
2019-03-27T20:20:30.901Z,6.50
2019-03-27T20:23:13.965Z,6.50
2019-03-27T20:25:33.122Z,6.40
2019-03-27T20:28:02.597Z,6.30
2019-03-27T20:30:32.161Z,6.20
2019-03-27T20:33:01.722Z,6.10
2019-03-27T20:35:31.112Z,6.10
2019-03-27T20:38:00.661Z,6.10
2019-03-27T20:40:30.625Z,6.10
2019-03-27T20:43:00.175Z,6.10
2019-03-27T20:45:29.855Z,6.10
2019-03-27T20:47:59.304Z,6.10
2019-03-27T20:50:28.793Z,6.10
2019-03-27T20:52:58.201Z,6.10
2019-03-27T20:55:30.557Z,6.10
2019-03-27T20:57:58.859Z,6.00
2019-03-27T21:00:28.257Z,6.00
2019-03-27T21:02:57.641Z,6.00
2019-03-27T21:05:27.117Z,5.90
2019-03-27T21:07:56.596Z,5.90
2019-03-27T21:10:25.967Z,6.00
2019-03-27T21:12:55.430Z,6.00
2019-03-27T21:15:25.085Z,6.00
2019-03-27T21:17:54.553Z,6.00
2019-03-27T21:20:24.053Z,6.00
2019-03-27T21:22:53.553Z,6.00
2019-03-27T21:25:22.942Z,6.00
2019-03-27T21:27:52.320Z,6.00
2019-03-27T21:30:21.804Z,6.00
2019-03-27T21:32:51.290Z,6.00
2019-03-27T21:35:20.842Z,6.00
2019-03-27T21:37:50.295Z,6.00
2019-03-27T21:40:19.873Z,6.00
2019-03-27T21:42:49.376Z,6.00
2019-03-27T21:45:18.975Z,6.00
2019-03-27T21:47:48.412Z,6.00
2019-03-27T21:50:17.880Z,6.00
2019-03-27T21:52:59.998Z,5.90
2019-03-27T21:55:22.727Z,5.80
2019-03-27T21:57:49.858Z,5.80
2019-03-27T22:00:36.716Z,5.80
2019-03-27T22:03:06.527Z,5.80
2019-03-27T22:05:36.136Z,5.80
2019-03-27T22:08:05.846Z,5.80
2019-03-27T22:10:35.472Z,5.80
2019-03-27T22:13:05.162Z,5.80
2019-03-27T22:15:34.726Z,5.80
2019-03-27T22:18:04.415Z,5.70
2019-03-27T22:20:33.869Z,5.80
2019-03-27T22:23:03.252Z,5.80
2019-03-27T22:25:36.091Z,5.80
2019-03-27T22:28:03.752Z,5.80
2019-03-27T22:30:33.208Z,5.80
2019-03-27T22:33:02.576Z,5.70
2019-03-27T22:35:32.056Z,5.70
2019-03-27T22:38:01.586Z,5.70
2019-03-27T22:40:31.072Z,5.70
2019-03-27T22:43:00.519Z,5.70
2019-03-27T22:45:30.049Z,5.70
2019-03-27T22:47:59.467Z,5.70
2019-03-27T22:50:28.941Z,5.70
2019-03-27T22:52:58.577Z,5.70
2019-03-27T22:55:28.016Z,5.70
2019-03-27T22:57:57.489Z,5.80
2019-03-27T23:00:46.039Z,5.80
2019-03-27T23:03:18.578Z,5.80
2019-03-27T23:05:47.749Z,5.80
2019-03-27T23:08:17.238Z,5.70
2019-03-27T23:10:46.753Z,5.70
2019-03-27T23:13:16.297Z,5.60
2019-03-27T23:15:50.356Z,5.60
2019-03-27T23:18:19.860Z,5.60
2019-03-27T23:20:49.373Z,5.50
2019-03-27T23:23:18.869Z,5.50
2019-03-27T23:25:48.261Z,5.50
2019-03-27T23:28:17.804Z,5.40
2019-03-27T23:30:47.176Z,5.40
2019-03-27T23:33:16.662Z,5.30
2019-03-27T23:35:46.133Z,5.30
2019-03-27T23:38:15.508Z,5.30
2019-03-27T23:40:44.992Z,5.30
2019-03-27T23:43:14.482Z,5.30
2019-03-27T23:45:43.885Z,5.30
2019-03-27T23:48:13.278Z,5.30
2019-03-27T23:50:42.804Z,5.30
2019-03-27T23:53:12.190Z,5.30
2019-03-27T23:55:41.672Z,5.20
2019-03-27T23:58:11.080Z,5.20
